Time;durP1;ratioP1;P1;durP2;ratioP2;P2;SDS_P1;SDS_P2;PMS_P1;PMS_P2;Temp;Humidity;BMP_temperature;BMP_pressure;BME280_temperature;BME280_humidity;BME280_pressure;Samples;Min_cycle;Max_cycle;Signal;HPM_P1;HPM_P2
2021/08/11 00:00:12;;;;;;;5.50;4.07;;;;;;;;;;4934456;29;20474;-67
2021/08/11 00:02:38;;;;;;;11.13;5.30;;;;;;;;;;4934437;29;20063;-66
2021/08/11 00:05:06;;;;;;;7.35;4.30;;;;;;;;;;4934425;29;20058;-66
2021/08/11 00:07:33;;;;;;;4.75;3.80;;;;;;;;;;4915544;29;20075;-66
2021/08/11 00:09:59;;;;;;;8.35;4.13;;;;;;;;;;4915209;29;20441;-66
2021/08/11 00:12:26;;;;;;;6.78;4.05;;;;;;;;;;4915437;29;20052;-66
2021/08/11 00:14:52;;;;;;;7.78;3.75;;;;;;;;;;4915176;29;20482;-66
2021/08/11 00:17:20;;;;;;;7.38;4.22;;;;;;;;;;4916884;29;20049;-67
2021/08/11 00:19:46;;;;;;;6.40;4.05;;;;;;;;;;4927171;29;20056;-66
2021/08/11 00:22:13;;;;;;;7.03;4.38;;;;;;;;;;4927701;29;20059;-66
2021/08/11 00:24:39;;;;;;;5.50;4.03;;;;;;;;;;4930087;29;20056;-67
2021/08/11 00:27:06;;;;;;;7.32;4.28;;;;;;;;;;4930585;29;20055;-67
2021/08/11 00:29:33;;;;;;;7.38;4.75;;;;;;;;;;4931202;29;20072;-67
2021/08/11 00:31:59;;;;;;;4.70;3.85;;;;;;;;;;4930542;29;20059;-67
2021/08/11 00:34:27;;;;;;;5.57;3.67;;;;;;;;;;4919060;29;20579;-66
2021/08/11 00:36:54;;;;;;;5.97;4.40;;;;;;;;;;4918602;29;20083;-66
2021/08/11 00:39:20;;;;;;;4.82;4.28;;;;;;;;;;4918570;29;20052;-66
2021/08/11 00:41:47;;;;;;;4.32;3.92;;;;;;;;;;4918743;29;20075;-66
2021/08/11 00:44:14;;;;;;;6.75;4.03;;;;;;;;;;4936226;29;20075;-66
2021/08/11 00:46:45;;;;;;;5.60;3.95;;;;;;;;;;4937495;29;20511;-66
2021/08/11 00:49:16;;;;;;;5.35;3.83;;;;;;;;;;4946580;29;20052;-66
2021/08/11 00:51:43;;;;;;;8.02;4.25;;;;;;;;;;4949707;29;20059;-67
2021/08/11 00:54:10;;;;;;;4.95;4.07;;;;;;;;;;4947930;29;20051;-66
2021/08/11 00:56:38;;;;;;;4.60;3.90;;;;;;;;;;4948423;29;20059;-66
2021/08/11 00:59:05;;;;;;;7.25;4.57;;;;;;;;;;4947086;29;20051;-67
2021/08/11 01:01:32;;;;;;;5.47;3.80;;;;;;;;;;4948360;29;20051;-67
2021/08/11 01:03:59;;;;;;;4.60;4.10;;;;;;;;;;4947536;29;20063;-67
2021/08/11 01:06:27;;;;;;;6.97;3.83;;;;;;;;;;4946034;29;20074;-67
2021/08/11 01:08:57;;;;;;;6.82;4.43;;;;;;;;;;4945747;29;20055;-67
2021/08/11 01:11:24;;;;;;;7.15;3.75;;;;;;;;;;4943436;29;20059;-66
2021/08/11 01:13:51;;;;;;;7.43;4.00;;;;;;;;;;4941744;29;20062;-66
2021/08/11 01:16:18;;;;;;;5.75;3.83;;;;;;;;;;4943587;29;20082;-66
2021/08/11 01:18:45;;;;;;;5.72;4.05;;;;;;;;;;4942510;29;20075;-66
2021/08/11 01:21:18;;;;;;;4.65;4.15;;;;;;;;;;4943109;29;20051;-67
2021/08/11 01:24:05;;;;;;;5.43;3.60;;;;;;;;;;4943471;29;20058;-66
2021/08/11 01:26:41;;;;;;;6.18;4.13;;;;;;;;;;4943852;29;20048;-66
2021/08/11 01:29:12;;;;;;;4.45;3.33;;;;;;;;;;4940822;29;20090;-66
2021/08/11 01:31:51;;;;;;;6.43;3.70;;;;;;;;;;4925590;29;20094;-66
2021/08/11 01:34:45;;;;;;;4.55;4.05;;;;;;;;;;4941581;29;20067;-66
2021/08/11 01:37:16;;;;;;;7.45;4.13;;;;;;;;;;4938516;29;20048;-67
2021/08/11 01:39:44;;;;;;;6.90;4.32;;;;;;;;;;4925705;29;20083;-67
2021/08/11 01:42:13;;;;;;;6.05;3.80;;;;;;;;;;4928128;29;20495;-67
2021/08/11 01:45:07;;;;;;;7.93;3.72;;;;;;;;;;4942786;29;20527;-67
2021/08/11 01:47:38;;;;;;;5.60;3.90;;;;;;;;;;4943126;29;20059;-67
2021/08/11 01:50:06;;;;;;;5.07;4.20;;;;;;;;;;4940350;29;20549;-67
2021/08/11 01:52:36;;;;;;;6.13;3.42;;;;;;;;;;4923511;29;20542;-67
2021/08/11 01:55:03;;;;;;;4.10;3.65;;;;;;;;;;4923865;29;20091;-67
2021/08/11 01:57:29;;;;;;;5.28;3.40;;;;;;;;;;4938372;29;20067;-67
2021/08/11 01:59:56;;;;;;;6.43;3.92;;;;;;;;;;4937024;29;20056;-67
2021/08/11 02:02:23;;;;;;;4.47;3.65;;;;;;;;;;4920214;23;20135;-68
2021/08/11 02:04:50;;;;;;;7.65;4.00;;;;;;;;;;4897291;29;20053;-68
2021/08/11 02:07:17;;;;;;;6.00;3.55;;;;;;;;;;4898384;29;20083;-68
2021/08/11 02:09:43;;;;;;;5.35;4.07;;;;;;;;;;4897233;29;20099;-68
2021/08/11 02:12:10;;;;;;;6.68;3.83;;;;;;;;;;4896860;29;20104;-65
2021/08/11 02:14:38;;;;;;;5.43;3.97;;;;;;;;;;4898464;29;20080;-65
2021/08/11 02:17:05;;;;;;;4.28;3.83;;;;;;;;;;4898252;29;20059;-65
2021/08/11 02:19:32;;;;;;;5.22;4.18;;;;;;;;;;4898130;29;20080;-65
2021/08/11 02:21:59;;;;;;;9.40;3.80;;;;;;;;;;4897867;29;20091;-65
2021/08/11 02:24:25;;;;;;;7.30;4.38;;;;;;;;;;4898432;29;20092;-65
2021/08/11 02:27:10;;;;;;;6.43;4.10;;;;;;;;;;4898088;29;20136;-66
2021/08/11 02:29:50;;;;;;;8.40;4.50;;;;;;;;;;4896643;29;20059;-65
2021/08/11 02:32:25;;;;;;;6.68;4.05;;;;;;;;;;4896835;29;20091;-65
2021/08/11 02:35:11;;;;;;;6.90;4.00;;;;;;;;;;4896548;29;20099;-65
2021/08/11 02:37:54;;;;;;;6.38;4.47;;;;;;;;;;4896566;29;20088;-65
2021/08/11 02:40:35;;;;;;;9.30;4.45;;;;;;;;;;4896653;29;20099;-65
2021/08/11 02:43:33;;;;;;;11.00;4.45;;;;;;;;;;4881618;29;20490;-65
2021/08/11 02:46:06;;;;;;;6.82;4.25;;;;;;;;;;4897103;29;20117;-65
2021/08/11 02:48:33;;;;;;;4.55;4.15;;;;;;;;;;4896418;29;20140;-65
2021/08/11 02:51:00;;;;;;;5.38;4.35;;;;;;;;;;4897284;29;20495;-65
2021/08/11 02:53:27;;;;;;;5.72;4.10;;;;;;;;;;4881037;29;20120;-65
2021/08/11 02:55:54;;;;;;;6.38;4.05;;;;;;;;;;4896175;29;20103;-65
2021/08/11 02:58:20;;;;;;;7.15;4.20;;;;;;;;;;4896315;29;20476;-65
2021/08/11 03:00:48;;;;;;;7.05;4.00;;;;;;;;;;4862966;29;20093;-65
2021/08/11 03:03:15;;;;;;;5.57;4.70;;;;;;;;;;4877417;29;20135;-65
2021/08/11 03:05:42;;;;;;;4.60;4.20;;;;;;;;;;4877470;29;20128;-65
2021/08/11 03:08:08;;;;;;;9.27;4.68;;;;;;;;;;4878459;29;20084;-65
2021/08/11 03:10:38;;;;;;;5.20;4.70;;;;;;;;;;4893435;29;20135;-65
2021/08/11 03:13:05;;;;;;;7.38;4.63;;;;;;;;;;4896984;29;20103;-65
2021/08/11 03:15:31;;;;;;;8.30;4.88;;;;;;;;;;4895934;29;20534;-65
2021/08/11 03:17:58;;;;;;;6.28;4.50;;;;;;;;;;4896930;29;20135;-65
2021/08/11 03:20:25;;;;;;;7.13;5.10;;;;;;;;;;4882582;29;20049;-65
2021/08/11 03:22:51;;;;;;;5.75;4.80;;;;;;;;;;4877085;29;20140;-65
2021/08/11 03:25:19;;;;;;;5.80;5.20;;;;;;;;;;4878277;29;20061;-65
2021/08/11 03:27:46;;;;;;;7.10;4.93;;;;;;;;;;4878273;29;20083;-65
2021/08/11 03:30:13;;;;;;;9.05;4.45;;;;;;;;;;4890343;29;20056;-66
2021/08/11 03:32:39;;;;;;;8.48;4.97;;;;;;;;;;4896865;29;20095;-65
2021/08/11 03:35:06;;;;;;;7.75;4.50;;;;;;;;;;4896907;29;20132;-65
2021/08/11 03:37:33;;;;;;;7.03;4.93;;;;;;;;;;4896814;29;20084;-67
2021/08/11 03:39:59;;;;;;;7.35;4.38;;;;;;;;;;4896739;29;20401;-66
2021/08/11 03:42:26;;;;;;;5.78;4.57;;;;;;;;;;4896748;29;20095;-67
2021/08/11 03:44:52;;;;;;;7.28;4.72;;;;;;;;;;4896661;29;20092;-66
2021/08/11 03:47:19;;;;;;;6.70;4.65;;;;;;;;;;4896975;29;20049;-67
2021/08/11 03:49:46;;;;;;;7.80;4.53;;;;;;;;;;4895746;29;20099;-67
2021/08/11 03:52:12;;;;;;;6.50;4.82;;;;;;;;;;4896583;29;20144;-67
2021/08/11 03:54:39;;;;;;;9.85;5.18;;;;;;;;;;4896526;29;20057;-66
2021/08/11 03:57:06;;;;;;;6.57;4.63;;;;;;;;;;4896785;29;20496;-66
2021/08/11 03:59:32;;;;;;;11.68;6.55;;;;;;;;;;4899653;29;20092;-66
2021/08/11 04:01:59;;;;;;;6.03;5.15;;;;;;;;;;4900407;29;20572;-66
2021/08/11 04:04:25;;;;;;;9.88;5.43;;;;;;;;;;4899463;29;20059;-66
2021/08/11 04:06:52;;;;;;;8.32;5.53;;;;;;;;;;4900592;29;20079;-66
2021/08/11 04:09:19;;;;;;;7.55;4.88;;;;;;;;;;4900420;29;20460;-66
2021/08/11 04:11:45;;;;;;;6.32;5.00;;;;;;;;;;4900404;29;20538;-67
2021/08/11 04:14:13;;;;;;;8.13;4.93;;;;;;;;;;4900420;29;20099;-66
2021/08/11 04:16:39;;;;;;;8.63;5.43;;;;;;;;;;4900521;29;20131;-66
2021/08/11 04:19:06;;;;;;;8.07;4.45;;;;;;;;;;4900069;29;20071;-67
2021/08/11 04:21:32;;;;;;;7.57;4.65;;;;;;;;;;4900330;29;20516;-66
2021/08/11 04:23:59;;;;;;;5.60;4.30;;;;;;;;;;4899993;29;20048;-67
2021/08/11 04:26:26;;;;;;;5.60;4.32;;;;;;;;;;4900347;29;20100;-66
2021/08/11 04:28:52;;;;;;;6.82;4.47;;;;;;;;;;4898766;29;20139;-66
2021/08/11 04:31:19;;;;;;;9.50;4.57;;;;;;;;;;4900018;29;20538;-66
2021/08/11 04:33:45;;;;;;;6.45;4.53;;;;;;;;;;4900025;29;20499;-66
2021/08/11 04:36:12;;;;;;;8.02;4.80;;;;;;;;;;4899814;29;20084;-66
2021/08/11 04:38:38;;;;;;;6.40;4.60;;;;;;;;;;4900036;29;20080;-67
2021/08/11 04:41:05;;;;;;;7.28;5.00;;;;;;;;;;4899546;29;20052;-66
2021/08/11 04:43:32;;;;;;;7.93;5.10;;;;;;;;;;4900043;29;20131;-66
2021/08/11 04:45:58;;;;;;;5.72;4.60;;;;;;;;;;4899636;29;20104;-66
2021/08/11 04:48:25;;;;;;;6.30;4.43;;;;;;;;;;4899899;29;20052;-66
2021/08/11 04:50:51;;;;;;;7.22;4.78;;;;;;;;;;4899373;29;20088;-66
2021/08/11 04:53:18;;;;;;;6.18;4.97;;;;;;;;;;4899634;29;20088;-67
2021/08/11 04:55:44;;;;;;;8.35;4.80;;;;;;;;;;4885923;29;20088;-66
2021/08/11 04:58:11;;;;;;;6.78;5.00;;;;;;;;;;4880756;29;20084;-66
2021/08/11 05:00:37;;;;;;;6.90;4.78;;;;;;;;;;4887082;29;20491;-67
2021/08/11 05:03:04;;;;;;;7.50;4.97;;;;;;;;;;4899007;29;20576;-68
2021/08/11 05:05:31;;;;;;;7.10;4.75;;;;;;;;;;4899433;29;20057;-68
2021/08/11 05:07:58;;;;;;;8.48;5.78;;;;;;;;;;4899335;29;20563;-67
2021/08/11 05:10:26;;;;;;;7.57;4.85;;;;;;;;;;4897564;29;20049;-66
2021/08/11 05:12:53;;;;;;;9.30;5.00;;;;;;;;;;4897412;29;20090;-66
2021/08/11 05:15:20;;;;;;;7.47;5.00;;;;;;;;;;4886097;29;20085;-66
2021/08/11 05:17:47;;;;;;;6.50;4.90;;;;;;;;;;4878574;29;20520;-67
2021/08/11 05:20:13;;;;;;;6.22;5.05;;;;;;;;;;4878242;29;20095;-67
2021/08/11 05:22:40;;;;;;;8.05;5.30;;;;;;;;;;4878444;29;20473;-67
2021/08/11 05:25:07;;;;;;;9.70;5.20;;;;;;;;;;4886572;29;20508;-67
2021/08/11 05:27:33;;;;;;;9.75;5.47;;;;;;;;;;4884058;29;20140;-67
2021/08/11 05:30:00;;;;;;;6.45;4.65;;;;;;;;;;4878051;29;20135;-66
2021/08/11 05:32:27;;;;;;;5.85;4.22;;;;;;;;;;4878185;29;20143;-66
2021/08/11 05:34:53;;;;;;;6.22;5.55;;;;;;;;;;4878199;29;20103;-67
2021/08/11 05:37:20;;;;;;;7.05;4.70;;;;;;;;;;4877780;29;20148;-66
2021/08/11 05:39:46;;;;;;;8.48;5.45;;;;;;;;;;4878202;29;20556;-67
2021/08/11 05:42:13;;;;;;;9.77;5.25;;;;;;;;;;4878392;29;20140;-66
2021/08/11 05:44:39;;;;;;;7.70;5.00;;;;;;;;;;4883425;29;20087;-68
2021/08/11 05:47:07;;;;;;;7.20;4.57;;;;;;;;;;4896491;29;20511;-67
2021/08/11 05:49:36;;;;;;;9.25;5.15;;;;;;;;;;4896405;29;20581;-67
2021/08/11 05:52:05;;;;;;;6.28;4.70;;;;;;;;;;4896466;29;20147;-67
2021/08/11 05:54:35;;;;;;;7.82;4.80;;;;;;;;;;4893391;29;20052;-67
2021/08/11 05:57:05;;;;;;;9.95;4.80;;;;;;;;;;4876550;29;20453;-67
2021/08/11 05:59:32;;;;;;;7.85;5.10;;;;;;;;;;4877821;29;20077;-66
2021/08/11 06:01:59;;;;;;;10.93;4.95;;;;;;;;;;4881843;29;20559;-67
2021/08/11 06:04:28;;;;;;;8.07;5.00;;;;;;;;;;4908223;29;20511;-66
2021/08/11 06:06:54;;;;;;;7.40;5.10;;;;;;;;;;4915068;29;20076;-67
2021/08/11 06:09:21;;;;;;;10.23;5.28;;;;;;;;;;4884896;29;20080;-66
2021/08/11 06:11:47;;;;;;;6.25;4.47;;;;;;;;;;4906791;29;20091;-67
2021/08/11 06:14:14;;;;;;;9.85;5.40;;;;;;;;;;4912882;29;20189;-67
2021/08/11 06:16:41;;;;;;;8.57;5.43;;;;;;;;;;4890938;29;20053;-67
2021/08/11 06:19:08;;;;;;;8.82;5.30;;;;;;;;;;4877135;29;20225;-66
2021/08/11 06:21:34;;;;;;;8.23;5.32;;;;;;;;;;4876816;29;20532;-66
2021/08/11 06:24:01;;;;;;;9.25;6.20;;;;;;;;;;4877548;29;20143;-66
2021/08/11 06:26:27;;;;;;;7.00;5.25;;;;;;;;;;4894572;29;20048;-66
2021/08/11 06:28:54;;;;;;;9.85;5.50;;;;;;;;;;4893084;29;20136;-67
2021/08/11 06:31:23;;;;;;;7.43;5.70;;;;;;;;;;4895895;29;20106;-66
2021/08/11 06:33:51;;;;;;;7.88;5.03;;;;;;;;;;4895929;29;20088;-66
2021/08/11 06:36:18;;;;;;;6.38;4.80;;;;;;;;;;4878434;29;20081;-65
2021/08/11 06:38:45;;;;;;;7.90;5.32;;;;;;;;;;4879061;29;20076;-65
2021/08/11 06:41:17;;;;;;;10.07;5.60;;;;;;;;;;4878900;29;20057;-68
2021/08/11 06:43:45;;;;;;;8.40;5.50;;;;;;;;;;4879890;29;20048;-67
2021/08/11 06:46:12;;;;;;;7.40;5.00;;;;;;;;;;4893737;29;20202;-66
2021/08/11 06:48:39;;;;;;;5.43;4.40;;;;;;;;;;4884010;29;20496;-67
2021/08/11 06:51:07;;;;;;;7.82;5.07;;;;;;;;;;4884305;29;20056;-66
2021/08/11 06:53:34;;;;;;;6.80;4.47;;;;;;;;;;4884359;29;20497;-65
2021/08/11 06:56:01;;;;;;;11.18;5.47;;;;;;;;;;4885411;29;20060;-65
2021/08/11 06:58:27;;;;;;;9.95;4.43;;;;;;;;;;4884178;29;20076;-66
2021/08/11 07:00:56;;;;;;;5.43;4.40;;;;;;;;;;4884931;29;20072;-67
2021/08/11 07:03:23;;;;;;;8.00;5.18;;;;;;;;;;4890405;29;20108;-66
2021/08/11 07:05:50;;;;;;;10.30;4.32;;;;;;;;;;4883926;29;20151;-66
2021/08/11 07:08:16;;;;;;;8.88;4.43;;;;;;;;;;4884924;29;20087;-66
2021/08/11 07:10:43;;;;;;;7.43;4.65;;;;;;;;;;4886876;29;20534;-66
2021/08/11 07:13:10;;;;;;;5.20;3.85;;;;;;;;;;4885095;29;20105;-66
2021/08/11 07:15:37;;;;;;;6.80;3.45;;;;;;;;;;4883400;29;20084;-66
2021/08/11 07:18:04;;;;;;;6.68;4.22;;;;;;;;;;4885433;29;20057;-66
2021/08/11 07:20:31;;;;;;;6.35;4.65;;;;;;;;;;4883037;29;20098;-66
2021/08/11 07:22:58;;;;;;;7.05;4.10;;;;;;;;;;4886657;29;20584;-66
2021/08/11 07:25:28;;;;;;;11.10;4.72;;;;;;;;;;4883585;29;20199;-66
2021/08/11 07:27:54;;;;;;;6.57;3.78;;;;;;;;;;4884785;29;20082;-66
2021/08/11 07:30:21;;;;;;;7.22;4.28;;;;;;;;;;4883249;29;20088;-66
2021/08/11 07:32:47;;;;;;;5.60;3.72;;;;;;;;;;4882703;29;20084;-66
2021/08/11 07:35:15;;;;;;;6.20;3.95;;;;;;;;;;4887070;29;20492;-66
2021/08/11 07:37:49;;;;;;;6.55;3.70;;;;;;;;;;4884403;29;20096;-66
2021/08/11 07:40:16;;;;;;;8.80;4.22;;;;;;;;;;4893236;29;20044;-68
2021/08/11 07:42:44;;;;;;;7.30;4.30;;;;;;;;;;4882972;29;20080;-68
2021/08/11 07:45:11;;;;;;;8.43;4.53;;;;;;;;;;4886827;29;20151;-67
2021/08/11 07:47:38;;;;;;;10.35;3.75;;;;;;;;;;4883949;29;20103;-67
2021/08/11 07:50:06;;;;;;;4.88;3.58;;;;;;;;;;4884450;29;20080;-67
2021/08/11 07:52:32;;;;;;;6.55;4.50;;;;;;;;;;4882163;29;20087;-68
2021/08/11 07:54:59;;;;;;;5.72;4.20;;;;;;;;;;4884510;29;20508;-70
2021/08/11 07:57:25;;;;;;;6.20;3.78;;;;;;;;;;4882407;29;20095;-72
2021/08/11 07:59:52;;;;;;;6.38;4.28;;;;;;;;;;4881580;29;20057;-66
2021/08/11 08:02:18;;;;;;;9.82;4.22;;;;;;;;;;4916583;23;20079;-61
2021/08/11 08:04:45;;;;;;;5.50;3.92;;;;;;;;;;4924804;29;20048;-61
2021/08/11 08:07:12;;;;;;;5.57;3.75;;;;;;;;;;4923395;29;20495;-61
2021/08/11 08:09:38;;;;;;;6.28;4.22;;;;;;;;;;4921303;29;20048;-61
2021/08/11 08:12:05;;;;;;;9.10;4.10;;;;;;;;;;4925757;29;20154;-62
2021/08/11 08:14:32;;;;;;;6.05;3.95;;;;;;;;;;4922719;29;20086;-62
2021/08/11 08:16:59;;;;;;;5.47;4.18;;;;;;;;;;4925229;29;20043;-61
2021/08/11 08:19:25;;;;;;;5.90;3.50;;;;;;;;;;4917719;29;20131;-61
2021/08/11 08:21:54;;;;;;;5.32;3.95;;;;;;;;;;4921254;29;20508;-62
2021/08/11 08:24:22;;;;;;;5.80;3.45;;;;;;;;;;4919372;29;20140;-67
2021/08/11 08:26:48;;;;;;;7.82;3.58;;;;;;;;;;4922491;29;20083;-67
2021/08/11 08:29:15;;;;;;;5.90;4.40;;;;;;;;;;4922416;29;20080;-69
2021/08/11 08:31:42;;;;;;;6.03;3.90;;;;;;;;;;4921778;29;20506;-68
2021/08/11 08:34:08;;;;;;;6.63;3.75;;;;;;;;;;4919810;29;20056;-70
2021/08/11 08:36:35;;;;;;;4.40;3.72;;;;;;;;;;4921232;29;20079;-61
2021/08/11 08:39:02;;;;;;;6.03;3.30;;;;;;;;;;4922981;29;20098;-61
2021/08/11 08:41:29;;;;;;;4.55;3.35;;;;;;;;;;4921264;29;20139;-61
2021/08/11 08:43:55;;;;;;;5.65;3.40;;;;;;;;;;4918933;29;20064;-62
2021/08/11 08:46:22;;;;;;;7.18;4.63;;;;;;;;;;4926783;29;20083;-62
2021/08/11 08:48:49;;;;;;;5.63;3.60;;;;;;;;;;4923507;29;20086;-62
2021/08/11 08:51:16;;;;;;;4.78;3.90;;;;;;;;;;4928990;29;20056;-61
2021/08/11 08:53:44;;;;;;;6.32;3.70;;;;;;;;;;4923539;29;20079;-61
2021/08/11 08:56:11;;;;;;;7.40;4.00;;;;;;;;;;4925590;29;20571;-61
2021/08/11 08:58:38;;;;;;;5.45;3.60;;;;;;;;;;4925005;29;20079;-62
2021/08/11 09:01:05;;;;;;;7.57;4.22;;;;;;;;;;4921807;29;20086;-61
2021/08/11 09:03:32;;;;;;;6.93;3.40;;;;;;;;;;4924938;29;20071;-61
2021/08/11 09:06:00;;;;;;;4.68;3.28;;;;;;;;;;4922881;29;20496;-61
2021/08/11 09:08:27;;;;;;;3.60;2.97;;;;;;;;;;4929840;29;20085;-62
2021/08/11 09:10:54;;;;;;;5.50;3.40;;;;;;;;;;4923132;29;20475;-62
2021/08/11 09:13:22;;;;;;;4.97;3.38;;;;;;;;;;4923727;29;20082;-62
2021/08/11 09:15:53;;;;;;;6.13;3.40;;;;;;;;;;4922771;29;20056;-62
2021/08/11 09:18:24;;;;;;;4.47;3.28;;;;;;;;;;4922767;29;20052;-62
2021/08/11 09:21:12;;;;;;;4.03;3.05;;;;;;;;;;4926860;29;20083;-62
2021/08/11 09:23:41;;;;;;;4.05;3.30;;;;;;;;;;4932865;29;20090;-62
2021/08/11 09:26:12;;;;;;;4.60;3.58;;;;;;;;;;4926413;29;20135;-62
2021/08/11 09:28:41;;;;;;;6.75;3.40;;;;;;;;;;4931440;29;20064;-62
2021/08/11 09:31:27;;;;;;;4.65;3.30;;;;;;;;;;4922603;29;20048;-62
2021/08/11 09:33:56;;;;;;;4.70;3.25;;;;;;;;;;4925589;29;20059;-62
2021/08/11 09:36:23;;;;;;;5.78;3.65;;;;;;;;;;4927070;29;20083;-62
2021/08/11 09:39:03;;;;;;;4.50;3.13;;;;;;;;;;4924567;29;20136;-68
2021/08/11 09:41:33;;;;;;;6.82;3.30;;;;;;;;;;4923704;29;20436;-62
2021/08/11 09:44:03;;;;;;;4.47;3.00;;;;;;;;;;4923798;29;20103;-62
2021/08/11 09:46:31;;;;;;;7.10;3.20;;;;;;;;;;4916420;29;20620;-62
2021/08/11 09:48:57;;;;;;;6.22;3.40;;;;;;;;;;4923280;29;20044;-63
2021/08/11 09:51:24;;;;;;;5.32;3.00;;;;;;;;;;4922391;29;20123;-63
2021/08/11 09:53:51;;;;;;;4.75;3.40;;;;;;;;;;4907755;29;20070;-63
2021/08/11 09:56:17;;;;;;;6.65;3.80;;;;;;;;;;4923968;29;20083;-63
2021/08/11 09:58:47;;;;;;;4.55;2.92;;;;;;;;;;4939142;29;20039;-62
2021/08/11 10:01:17;;;;;;;5.38;2.97;;;;;;;;;;4955438;28;20506;-62
2021/08/11 10:04:04;;;;;;;4.22;3.38;;;;;;;;;;4954885;28;20135;-62
2021/08/11 10:06:39;;;;;;;5.82;3.35;;;;;;;;;;4955557;28;20577;-62
2021/08/11 10:09:25;;;;;;;4.57;3.00;;;;;;;;;;4953725;28;20083;-63
2021/08/11 10:11:53;;;;;;;4.95;4.20;;;;;;;;;;4944602;28;20052;-62
2021/08/11 10:14:22;;;;;;;5.13;3.08;;;;;;;;;;4924192;29;20913;-63
2021/08/11 10:16:51;;;;;;;4.53;3.20;;;;;;;;;;4926008;29;20059;-62
2021/08/11 10:19:19;;;;;;;5.40;2.83;;;;;;;;;;4923238;29;20627;-63
2021/08/11 10:22:02;;;;;;;3.13;2.80;;;;;;;;;;4920989;29;20079;-63
2021/08/11 10:24:29;;;;;;;;;;;;;;;;;;4925785;29;20079;-63
2021/08/11 10:26:56;;;;;;;4.70;3.47;;;;;;;;;;4923424;29;20540;-62
2021/08/11 10:29:24;;;;;;;3.13;2.58;;;;;;;;;;4926026;29;20097;-67
2021/08/11 10:31:51;;;;;;;2.70;2.20;;;;;;;;;;4924338;29;20098;-67
2021/08/11 10:34:18;;;;;;;5.78;3.33;;;;;;;;;;4923606;29;20185;-67
2021/08/11 10:36:46;;;;;;;5.55;3.45;;;;;;;;;;4915878;29;20056;-63
2021/08/11 10:39:16;;;;;;;5.78;2.85;;;;;;;;;;4915562;29;20165;-66
2021/08/11 10:41:43;;;;;;;4.20;3.00;;;;;;;;;;4923291;29;20047;-63
2021/08/11 10:44:23;;;;;;;3.45;2.80;;;;;;;;;;4924203;29;20642;-68
2021/08/11 10:46:57;;;;;;;3.40;2.97;;;;;;;;;;4924272;29;20127;-67
2021/08/11 10:49:29;;;;;;;4.65;2.63;;;;;;;;;;4923162;29;20051;-68
2021/08/11 10:51:59;;;;;;;;;;;;;;;;;;4924338;29;20052;-68
2021/08/11 10:54:26;;;;;;;5.20;3.20;;;;;;;;;;4922648;29;19922;-68
2021/08/11 10:56:55;;;;;;;4.97;3.05;;;;;;;;;;4924759;29;20052;-64
2021/08/11 10:59:21;;;;;;;4.32;3.08;;;;;;;;;;4922651;29;20130;-64
2021/08/11 11:01:52;;;;;;;4.82;3.42;;;;;;;;;;4921690;29;20079;-63
2021/08/11 11:04:41;;;;;;;6.75;3.17;;;;;;;;;;4922880;29;20482;-63
2021/08/11 11:07:10;;;;;;;5.30;2.92;;;;;;;;;;4924017;29;20134;-63
2021/08/11 11:09:38;;;;;;;7.18;3.20;;;;;;;;;;4925793;29;20119;-63
2021/08/11 11:12:17;;;;;;;6.32;3.20;;;;;;;;;;4923476;29;20056;-63
2021/08/11 11:14:57;;;;;;;4.82;2.75;;;;;;;;;;4923769;29;20110;-63
2021/08/11 11:17:28;;;;;;;5.10;3.25;;;;;;;;;;4924274;29;20055;-64
2021/08/11 11:20:10;;;;;;;4.35;3.17;;;;;;;;;;4920612;29;20135;-68
2021/08/11 11:22:52;;;;;;;8.60;2.88;;;;;;;;;;4921807;29;20549;-67
2021/08/11 11:25:21;;;;;;;6.15;3.67;;;;;;;;;;4925961;29;20419;-67
2021/08/11 11:27:55;;;;;;;6.32;4.05;;;;;;;;;;4921350;29;21445;-66
2021/08/11 11:30:25;;;;;;;5.43;3.10;;;;;;;;;;4920353;29;20047;-65
2021/08/11 11:32:52;;;;;;;6.07;3.38;;;;;;;;;;4924601;29;20574;-66
2021/08/11 11:35:23;;;;;;;6.88;3.30;;;;;;;;;;4917742;29;20507;-68
2021/08/11 11:38:05;;;;;;;3.65;3.15;;;;;;;;;;4922179;29;20462;-68
2021/08/11 11:40:32;;;;;;;5.25;3.20;;;;;;;;;;4914756;29;20132;-66
2021/08/11 11:43:31;;;;;;;5.47;3.65;;;;;;;;;;4914535;29;20575;-68
2021/08/11 11:45:59;;;;;;;6.00;3.58;;;;;;;;;;4920786;29;20115;-68
2021/08/11 11:48:25;;;;;;;6.00;3.30;;;;;;;;;;4924361;29;20059;-65
2021/08/11 11:51:00;;;;;;;5.00;3.63;;;;;;;;;;4920182;29;20111;-62
2021/08/11 11:53:31;;;;;;;4.55;3.45;;;;;;;;;;4922258;29;20131;-64
2021/08/11 11:55:58;;;;;;;5.28;3.42;;;;;;;;;;4922745;29;20131;-64
2021/08/11 11:58:26;;;;;;;5.10;3.35;;;;;;;;;;4925476;29;20134;-64
2021/08/11 12:01:02;;;;;;;6.00;3.38;;;;;;;;;;4922868;29;20086;-63
2021/08/11 12:03:37;;;;;;;5.18;3.38;;;;;;;;;;4922230;29;20135;-64
2021/08/11 12:06:05;;;;;;;5.75;3.42;;;;;;;;;;4925149;29;20059;-63
2021/08/11 12:08:32;;;;;;;3.85;3.05;;;;;;;;;;4922266;29;20079;-64
2021/08/11 12:11:10;;;;;;;4.90;2.80;;;;;;;;;;4921570;29;20100;-63
2021/08/11 12:13:43;;;;;;;4.18;2.97;;;;;;;;;;4922726;29;20079;-64
2021/08/11 12:16:12;;;;;;;8.00;3.20;;;;;;;;;;4922088;29;20060;-64
2021/08/11 12:18:41;;;;;;;4.75;3.10;;;;;;;;;;4921976;29;20130;-64
2021/08/11 12:21:08;;;;;;;4.72;3.60;;;;;;;;;;4925576;29;20087;-64
2021/08/11 12:23:35;;;;;;;2.92;2.60;;;;;;;;;;4925302;29;20052;-64
2021/08/11 12:26:04;;;;;;;5.45;2.72;;;;;;;;;;4928113;29;20511;-63
2021/08/11 12:28:36;;;;;;;5.63;3.20;;;;;;;;;;4924947;29;20079;-63
2021/08/11 12:31:11;;;;;;;4.65;2.97;;;;;;;;;;4925582;29;20154;-63
2021/08/11 12:33:39;;;;;;;5.93;3.10;;;;;;;;;;4924066;29;20055;-64
2021/08/11 12:36:10;;;;;;;5.63;3.42;;;;;;;;;;4924026;29;20088;-64
2021/08/11 12:38:38;;;;;;;5.90;3.20;;;;;;;;;;4927944;29;20538;-64
2021/08/11 12:41:21;;;;;;;6.05;2.65;;;;;;;;;;4924911;29;20547;-64
2021/08/11 12:43:51;;;;;;;4.10;2.65;;;;;;;;;;4925535;29;20123;-64
2021/08/11 12:46:46;;;;;;;4.72;2.63;;;;;;;;;;4928064;29;20134;-64
2021/08/11 12:49:21;;;;;;;5.25;2.78;;;;;;;;;;4925833;29;20555;-64
2021/08/11 12:52:18;;;;;;;2.55;2.35;;;;;;;;;;4923301;29;20423;-63
2021/08/11 12:55:05;;;;;;;3.30;2.17;;;;;;;;;;4926077;29;20091;-64
2021/08/11 12:57:40;;;;;;;3.05;2.67;;;;;;;;;;4928087;29;20530;-64
2021/08/11 13:00:09;;;;;;;2.70;2.22;;;;;;;;;;4926027;29;20043;-63
2021/08/11 13:02:35;;;;;;;2.85;2.35;;;;;;;;;;4923364;29;20134;-63
2021/08/11 13:05:09;;;;;;;3.58;2.50;;;;;;;;;;4923168;29;20106;-62
2021/08/11 13:07:58;;;;;;;4.53;2.38;;;;;;;;;;4925333;29;20096;-63
2021/08/11 13:10:27;;;;;;;3.85;2.70;;;;;;;;;;4926131;29;20578;-63
2021/08/11 13:12:54;;;;;;;2.20;2.00;;;;;;;;;;4922294;29;20485;-63
2021/08/11 13:15:24;;;;;;;4.88;2.65;;;;;;;;;;4916173;29;20082;-63
2021/08/11 13:17:56;;;;;;;3.13;2.30;;;;;;;;;;4927469;29;20048;-62
2021/08/11 13:20:26;;;;;;;;;;;;;;;;;;4926176;29;20054;-63
2021/08/11 13:22:55;;;;;;;4.35;2.22;;;;;;;;;;4935924;29;20662;-63
2021/08/11 13:25:23;;;;;;;3.38;1.98;;;;;;;;;;4925900;29;20090;-63
2021/08/11 13:27:52;;;;;;;3.30;2.20;;;;;;;;;;4928760;29;20055;-64
2021/08/11 13:30:20;;;;;;;4.78;1.98;;;;;;;;;;4916582;29;20059;-63
2021/08/11 13:32:47;;;;;;;3.13;2.10;;;;;;;;;;4917392;29;20084;-63
2021/08/11 13:35:15;;;;;;;4.93;2.30;;;;;;;;;;4922241;29;20056;-63
2021/08/11 13:37:41;;;;;;;3.15;2.38;;;;;;;;;;4925992;29;20087;-63
2021/08/11 13:40:09;;;;;;;4.05;2.42;;;;;;;;;;4922893;29;20091;-63
2021/08/11 13:42:36;;;;;;;6.20;3.03;;;;;;;;;;4863617;28;24496;-63
2021/08/11 13:45:07;;;;;;;3.40;2.53;;;;;;;;;;4905089;29;20056;-64
2021/08/11 13:47:40;;;;;;;3.47;2.35;;;;;;;;;;4906852;29;20130;-63
2021/08/11 13:50:07;;;;;;;2.97;2.00;;;;;;;;;;4908236;29;20139;-63
2021/08/11 13:52:34;;;;;;;4.68;2.20;;;;;;;;;;4896663;29;20087;-62
2021/08/11 13:55:01;;;;;;;3.30;2.30;;;;;;;;;;4910928;29;20127;-63
2021/08/11 13:57:29;;;;;;;3.95;2.65;;;;;;;;;;4902773;29;20330;-63
2021/08/11 13:59:57;;;;;;;2.65;2.28;;;;;;;;;;4904157;29;20520;-63
2021/08/11 14:02:23;;;;;;;3.30;2.42;;;;;;;;;;4908635;29;20048;-64
2021/08/11 14:04:51;;;;;;;3.97;2.47;;;;;;;;;;4904760;29;20104;-63
2021/08/11 14:07:18;;;;;;;3.38;2.70;;;;;;;;;;4908119;29;20056;-63
2021/08/11 14:09:45;;;;;;;3.75;2.40;;;;;;;;;;4904179;29;20048;-63
2021/08/11 14:12:13;;;;;;;3.10;2.53;;;;;;;;;;4905213;29;20186;-63
2021/08/11 14:14:40;;;;;;;3.20;2.63;;;;;;;;;;4906105;29;20048;-63
2021/08/11 14:17:09;;;;;;;4.57;3.17;;;;;;;;;;4904233;29;20066;-63
2021/08/11 14:19:36;;;;;;;3.53;2.58;;;;;;;;;;4907556;29;20413;-63
2021/08/11 14:22:05;;;;;;;2.75;2.25;;;;;;;;;;4904980;29;20539;-63
2021/08/11 14:24:31;;;;;;;5.20;2.60;;;;;;;;;;4905937;29;20091;-63
2021/08/11 14:26:58;;;;;;;2.53;2.33;;;;;;;;;;4904509;29;20135;-63
2021/08/11 14:29:24;;;;;;;2.85;2.45;;;;;;;;;;4902405;29;20120;-63
2021/08/11 14:31:51;;;;;;;3.97;2.60;;;;;;;;;;4903120;29;20119;-64
2021/08/11 14:34:18;;;;;;;3.03;2.50;;;;;;;;;;4910319;29;20087;-64
2021/08/11 14:36:45;;;;;;;3.50;2.50;;;;;;;;;;4909793;29;20047;-63
2021/08/11 14:39:12;;;;;;;3.58;2.40;;;;;;;;;;4902311;29;20144;-64
2021/08/11 14:41:38;;;;;;;2.90;2.60;;;;;;;;;;4905172;29;20083;-64
2021/08/11 14:44:05;;;;;;;5.03;3.20;;;;;;;;;;4902105;29;20139;-65
2021/08/11 14:46:31;;;;;;;3.25;2.95;;;;;;;;;;4908595;29;20102;-66
2021/08/11 14:48:58;;;;;;;3.72;2.55;;;;;;;;;;4903770;29;20942;-65
2021/08/11 14:51:24;;;;;;;4.28;3.15;;;;;;;;;;4903645;29;20572;-64
2021/08/11 14:53:53;;;;;;;4.38;2.85;;;;;;;;;;4903898;29;20052;-65